createdAt,value
2023-05-08T00:00:17.349Z,42.01
2023-05-08T00:02:45.941Z,42.47
2023-05-08T00:05:13.131Z,42.37
2023-05-08T00:07:40.328Z,42.32
2023-05-08T00:10:09.057Z,42.27
2023-05-08T00:12:36.790Z,42.33
2023-05-08T00:15:04.959Z,42.38
2023-05-08T00:17:32.096Z,42.51
2023-05-08T00:20:00.741Z,42.60
2023-05-08T00:22:27.954Z,42.54
2023-05-08T00:24:55.027Z,42.50
2023-05-08T00:27:22.119Z,42.41
2023-05-08T00:29:49.226Z,42.27
2023-05-08T00:32:16.361Z,42.04
2023-05-08T00:34:43.479Z,42.25
2023-05-08T00:37:11.892Z,41.98
2023-05-08T00:39:38.965Z,41.99
2023-05-08T00:42:06.183Z,42.04
2023-05-08T00:44:33.317Z,42.35
2023-05-08T00:47:00.625Z,41.97
2023-05-08T00:49:28.202Z,42.36
2023-05-08T00:51:55.913Z,42.34
2023-05-08T00:54:26.215Z,42.29
2023-05-08T00:56:54.513Z,42.47
2023-05-08T00:59:22.276Z,42.37
2023-05-08T01:01:50.631Z,42.40
2023-05-08T01:04:21.120Z,42.47
2023-05-08T01:06:48.247Z,42.48
2023-05-08T01:09:15.330Z,42.43
2023-05-08T01:11:49.889Z,42.03
2023-05-08T01:14:21.458Z,42.10
2023-05-08T01:16:58.410Z,42.23
2023-05-08T01:19:49.390Z,42.32
2023-05-08T01:22:27.820Z,41.90
2023-05-08T01:25:24.056Z,42.14
2023-05-08T01:28:21.852Z,42.10
2023-05-08T01:31:04.988Z,42.20
2023-05-08T01:33:41.558Z,42.31
2023-05-08T01:36:23.449Z,42.08
2023-05-08T01:38:56.670Z,42.44
2023-05-08T01:41:26.724Z,42.25
2023-05-08T01:44:02.722Z,41.98
2023-05-08T01:46:32.740Z,42.17
2023-05-08T01:49:07.587Z,42.34
2023-05-08T01:51:40.244Z,42.41
2023-05-08T01:54:11.010Z,42.26
2023-05-08T01:56:40.713Z,42.38
2023-05-08T01:59:10.338Z,41.99
2023-05-08T02:01:39.333Z,41.96
2023-05-08T02:04:09.977Z,42.00
2023-05-08T02:06:38.776Z,41.92
2023-05-08T02:09:08.134Z,42.33
2023-05-08T02:11:37.584Z,41.99
2023-05-08T02:14:07.040Z,42.11
2023-05-08T02:16:35.787Z,42.24
2023-05-08T02:19:04.437Z,42.22
2023-05-08T02:21:34.884Z,42.24
2023-05-08T02:24:04.164Z,42.22
2023-05-08T02:26:32.837Z,42.34
2023-05-08T02:29:02.543Z,42.33
2023-05-08T02:31:30.571Z,42.53
2023-05-08T02:33:59.717Z,42.44
2023-05-08T02:36:27.782Z,42.53
2023-05-08T02:38:58.369Z,42.43
2023-05-08T02:41:29.568Z,42.23
2023-05-08T02:43:57.126Z,42.04
2023-05-08T02:46:30.965Z,42.34
2023-05-08T02:48:59.962Z,42.13
2023-05-08T02:51:33.803Z,42.21
2023-05-08T02:54:04.875Z,42.25
2023-05-08T02:56:37.597Z,41.97
2023-05-08T02:59:16.809Z,41.89
2023-05-08T03:01:52.243Z,41.96
2023-05-08T03:04:26.307Z,42.10
2023-05-08T03:06:56.578Z,42.39
2023-05-08T03:09:28.557Z,42.46
2023-05-08T03:12:01.546Z,42.41
2023-05-08T03:14:30.610Z,42.22
2023-05-08T03:17:00.488Z,42.11
2023-05-08T03:19:31.946Z,42.44
2023-05-08T03:22:00.513Z,42.70
2023-05-08T03:24:31.261Z,42.36
2023-05-08T03:26:59.626Z,42.24
2023-05-08T03:29:28.516Z,41.97
2023-05-08T03:31:58.533Z,41.83
2023-05-08T03:34:26.203Z,41.94
2023-05-08T03:36:53.283Z,42.16
2023-05-08T03:39:20.489Z,42.17
2023-05-08T03:41:49.127Z,41.94
2023-05-08T03:44:18.807Z,42.18
2023-05-08T03:46:47.408Z,42.15
2023-05-08T03:49:15.036Z,42.17
2023-05-08T03:51:43.153Z,41.99
2023-05-08T03:54:10.243Z,42.53
2023-05-08T03:56:37.471Z,42.74
2023-05-08T03:59:13.685Z,42.64
2023-05-08T04:01:48.646Z,42.50
2023-05-08T04:04:18.379Z,42.57
2023-05-08T04:06:52.263Z,42.62
2023-05-08T04:09:23.740Z,42.34
2023-05-08T04:12:00.741Z,42.46
2023-05-08T04:14:34.579Z,42.44
2023-05-08T04:17:06.934Z,42.11
2023-05-08T04:19:38.505Z,42.27
2023-05-08T04:22:07.833Z,43.14
2023-05-08T04:24:40.767Z,43.01
2023-05-08T04:27:09.870Z,42.73
2023-05-08T04:29:38.618Z,42.30
2023-05-08T04:32:06.471Z,41.97
2023-05-08T04:34:33.849Z,42.12
2023-05-08T04:37:00.948Z,42.33
2023-05-08T04:39:28.132Z,42.36
2023-05-08T04:41:55.218Z,42.48
2023-05-08T04:44:22.311Z,42.36
2023-05-08T04:46:50.766Z,42.39
2023-05-08T04:49:17.880Z,42.28
2023-05-08T04:51:44.962Z,42.54
2023-05-08T04:54:12.089Z,42.42
2023-05-08T04:56:39.217Z,42.13
2023-05-08T04:59:06.290Z,42.29
2023-05-08T05:01:33.406Z,41.99
2023-05-08T05:04:01.952Z,42.06
2023-05-08T05:06:29.067Z,42.58
2023-05-08T05:08:56.357Z,43.69
2023-05-08T05:11:23.506Z,42.47
2023-05-08T05:13:50.613Z,41.58
2023-05-08T05:16:17.785Z,39.87
2023-05-08T05:18:44.938Z,39.42
2023-05-08T05:21:13.468Z,38.04
2023-05-08T05:23:40.580Z,37.50
2023-05-08T05:26:07.709Z,38.79
2023-05-08T05:28:34.808Z,37.99
2023-05-08T05:31:02.334Z,38.74
2023-05-08T05:33:29.528Z,38.42
2023-05-08T05:35:56.616Z,38.18
2023-05-08T05:38:25.080Z,37.96
2023-05-08T05:40:52.201Z,38.27
2023-05-08T05:43:19.290Z,38.64
2023-05-08T05:45:46.412Z,38.31
2023-05-08T05:48:13.544Z,38.14
2023-05-08T05:50:40.801Z,38.29
2023-05-08T05:53:07.922Z,38.58
2023-05-08T05:55:36.430Z,38.37
2023-05-08T05:58:03.534Z,38.56
2023-05-08T06:00:30.625Z,38.71
2023-05-08T06:02:58.077Z,39.11
2023-05-08T06:05:25.538Z,39.10
2023-05-08T06:07:52.657Z,39.32
2023-05-08T06:10:19.890Z,39.30
2023-05-08T06:12:48.411Z,39.49
2023-05-08T06:15:15.654Z,39.29
2023-05-08T06:17:42.888Z,39.75
2023-05-08T06:20:10.167Z,39.74
2023-05-08T06:22:37.279Z,39.33
2023-05-08T06:25:04.957Z,39.11
2023-05-08T06:27:32.045Z,39.20
2023-05-08T06:30:00.761Z,38.63
2023-05-08T06:32:28.147Z,37.96
2023-05-08T06:34:55.230Z,38.38
2023-05-08T06:37:22.561Z,38.28
2023-05-08T06:39:57.291Z,37.93
2023-05-08T06:42:31.332Z,38.02
2023-05-08T06:44:59.825Z,37.80
2023-05-08T06:47:26.945Z,37.77
2023-05-08T06:49:54.055Z,37.86
2023-05-08T06:52:21.341Z,38.32
2023-05-08T06:54:48.430Z,37.97
2023-05-08T06:57:15.765Z,37.67
2023-05-08T06:59:42.881Z,37.78
2023-05-08T07:02:11.529Z,37.96
2023-05-08T07:04:38.729Z,37.78
2023-05-08T07:07:05.899Z,38.00
2023-05-08T07:09:32.997Z,37.95
2023-05-08T07:12:00.149Z,37.84
2023-05-08T07:14:27.259Z,37.67
2023-05-08T07:16:54.395Z,37.92
2023-05-08T07:19:22.826Z,37.77
2023-05-08T07:21:49.990Z,37.92
2023-05-08T07:24:17.095Z,37.80
2023-05-08T07:26:44.175Z,37.70
2023-05-08T07:29:11.281Z,37.63
2023-05-08T07:31:39.558Z,37.88
2023-05-08T07:34:06.664Z,37.83
2023-05-08T07:36:35.138Z,37.64
2023-05-08T07:39:02.243Z,39.41
2023-05-08T07:41:29.367Z,39.51
2023-05-08T07:43:56.592Z,38.44
2023-05-08T07:46:23.866Z,38.69
2023-05-08T07:48:50.958Z,38.44
2023-05-08T07:51:18.055Z,37.78
2023-05-08T07:53:46.494Z,38.09
2023-05-08T07:56:13.590Z,37.71
2023-05-08T07:58:40.700Z,37.37
2023-05-08T08:01:07.982Z,37.68
2023-05-08T08:03:35.149Z,37.08
2023-05-08T08:06:02.353Z,37.32
2023-05-08T08:08:29.475Z,37.10
2023-05-08T08:10:58.018Z,37.27
2023-05-08T08:13:25.240Z,37.18
2023-05-08T08:15:52.405Z,36.88
2023-05-08T08:18:19.543Z,37.29
2023-05-08T08:20:46.672Z,36.93
2023-05-08T08:23:13.816Z,37.03
2023-05-08T08:25:40.965Z,37.17
2023-05-08T08:28:09.455Z,37.48
2023-05-08T08:30:36.540Z,37.19
2023-05-08T08:33:03.786Z,37.10
2023-05-08T08:35:32.373Z,37.30
2023-05-08T08:37:59.493Z,37.68
2023-05-08T08:40:26.677Z,37.94
2023-05-08T08:42:54.687Z,37.75
2023-05-08T08:45:23.534Z,37.75
2023-05-08T08:47:52.737Z,37.70
2023-05-08T08:50:20.406Z,37.93
2023-05-08T08:53:00.485Z,37.97
2023-05-08T08:55:27.938Z,38.11
2023-05-08T08:58:07.353Z,37.91
2023-05-08T09:00:37.108Z,37.89
2023-05-08T09:03:06.020Z,38.07
2023-05-08T09:05:33.724Z,38.15
2023-05-08T09:08:01.270Z,38.53
2023-05-08T09:10:28.559Z,38.35
2023-05-08T09:12:55.696Z,38.11
2023-05-08T09:15:22.831Z,38.57
2023-05-08T09:17:51.394Z,38.71
2023-05-08T09:20:19.169Z,38.73
2023-05-08T09:22:47.594Z,38.65
2023-05-08T09:25:14.945Z,38.53
2023-05-08T09:27:42.073Z,38.88
2023-05-08T09:30:10.749Z,38.90
2023-05-08T09:32:39.007Z,38.83
2023-05-08T09:35:09.181Z,38.77
2023-05-08T09:37:39.455Z,38.70
2023-05-08T09:40:14.336Z,38.74
2023-05-08T09:42:41.773Z,38.53
2023-05-08T09:45:09.891Z,38.66
2023-05-08T09:47:37.016Z,38.64
2023-05-08T09:50:06.230Z,38.64
2023-05-08T09:52:36.516Z,38.63
2023-05-08T09:55:05.304Z,38.75
2023-05-08T09:57:34.275Z,38.84
2023-05-08T10:00:02.588Z,38.93
2023-05-08T10:02:29.712Z,39.05
2023-05-08T10:04:56.864Z,39.13
2023-05-08T10:07:31.338Z,38.89
2023-05-08T10:10:01.024Z,39.21
2023-05-08T10:12:28.982Z,38.97
2023-05-08T10:14:56.429Z,39.05
2023-05-08T10:17:31.986Z,39.05
2023-05-08T10:20:01.043Z,38.98
2023-05-08T10:22:28.872Z,39.02
2023-05-08T10:24:57.658Z,38.96
2023-05-08T10:27:35.200Z,38.97
2023-05-08T10:30:04.082Z,39.03
2023-05-08T10:32:38.740Z,39.51
2023-05-08T10:35:09.295Z,39.71
2023-05-08T10:37:37.479Z,39.44
2023-05-08T10:40:06.255Z,39.55
2023-05-08T10:42:35.049Z,39.78
2023-05-08T10:45:04.460Z,39.48
2023-05-08T10:47:45.842Z,39.60
2023-05-08T10:50:25.825Z,39.53
2023-05-08T10:52:59.110Z,39.70
2023-05-08T10:55:30.326Z,39.85
2023-05-08T10:58:10.957Z,39.75
2023-05-08T11:01:15.868Z,39.89
2023-05-08T11:03:44.068Z,39.83
2023-05-08T11:06:11.675Z,39.73
2023-05-08T11:08:50.002Z,39.51
2023-05-08T11:11:31.758Z,39.65
2023-05-08T11:14:12.139Z,39.57
2023-05-08T11:17:07.522Z,39.77
2023-05-08T11:19:35.630Z,39.71
2023-05-08T11:22:27.756Z,39.63
2023-05-08T11:25:03.471Z,39.30
2023-05-08T11:27:38.689Z,39.57
2023-05-08T11:30:35.344Z,39.68
2023-05-08T11:33:23.304Z,39.70
2023-05-08T11:35:55.845Z,39.58
2023-05-08T11:38:28.599Z,39.55
2023-05-08T11:41:01.293Z,39.64
2023-05-08T11:44:13.165Z,39.70
2023-05-08T11:46:49.165Z,39.77
2023-05-08T11:49:18.986Z,39.39
2023-05-08T11:51:50.208Z,39.54
2023-05-08T11:54:19.486Z,39.71
2023-05-08T11:56:47.969Z,39.58
2023-05-08T11:59:16.358Z,39.56
2023-05-08T12:01:50.873Z,39.88
2023-05-08T12:04:23.832Z,39.58
2023-05-08T12:06:57.640Z,39.73
2023-05-08T12:09:24.952Z,39.34
2023-05-08T12:11:57.438Z,39.37
2023-05-08T12:14:24.533Z,39.25
2023-05-08T12:16:53.018Z,39.66
2023-05-08T12:19:20.161Z,39.49
2023-05-08T12:21:47.698Z,39.67
2023-05-08T12:24:16.420Z,39.66
2023-05-08T12:26:43.525Z,39.66
2023-05-08T12:29:10.599Z,39.37
2023-05-08T12:31:38.135Z,39.92
2023-05-08T12:34:07.724Z,39.59
2023-05-08T12:36:35.291Z,39.91
2023-05-08T12:39:09.753Z,39.79
2023-05-08T12:41:42.093Z,39.62
2023-05-08T12:44:17.277Z,39.96
2023-05-08T12:46:49.336Z,39.99
2023-05-08T12:49:25.754Z,39.75
2023-05-08T12:52:00.661Z,39.90
2023-05-08T12:54:32.949Z,39.64
2023-05-08T12:57:00.038Z,39.60
2023-05-08T12:59:32.005Z,39.54
2023-05-08T13:01:59.199Z,39.59
2023-05-08T13:04:27.990Z,39.46
2023-05-08T13:06:55.357Z,39.34
2023-05-08T13:09:22.692Z,39.52
2023-05-08T13:11:50.009Z,39.63
2023-05-08T13:14:17.127Z,39.66
2023-05-08T13:16:44.693Z,39.74
2023-05-08T13:19:11.904Z,39.78
2023-05-08T13:21:40.453Z,39.80
2023-05-08T13:24:07.807Z,39.83
2023-05-08T13:26:34.910Z,39.74
2023-05-08T13:29:02.018Z,40.00
2023-05-08T13:31:29.163Z,39.72
2023-05-08T13:33:56.281Z,40.04
2023-05-08T13:36:23.581Z,39.79
2023-05-08T13:38:52.023Z,39.91
2023-05-08T13:41:19.089Z,39.86
2023-05-08T13:43:47.252Z,39.77
2023-05-08T13:46:14.476Z,40.05
2023-05-08T13:48:41.592Z,39.97
2023-05-08T13:51:08.665Z,39.65
2023-05-08T13:53:35.835Z,39.89
2023-05-08T13:56:04.698Z,39.76
2023-05-08T13:58:31.813Z,39.99
2023-05-08T14:01:00.371Z,39.59
2023-05-08T14:03:32.334Z,39.85
2023-05-08T14:05:59.465Z,39.97
2023-05-08T14:08:26.542Z,39.56
2023-05-08T14:10:53.608Z,39.71
2023-05-08T14:13:22.120Z,39.75
2023-05-08T14:15:49.290Z,39.77
2023-05-08T14:18:16.398Z,40.02
2023-05-08T14:20:46.981Z,39.92
2023-05-08T14:23:16.224Z,39.86
2023-05-08T14:25:43.315Z,40.15
2023-05-08T14:28:10.385Z,40.11
2023-05-08T14:30:38.811Z,40.15
2023-05-08T14:33:05.964Z,40.09
2023-05-08T14:35:33.136Z,39.72
2023-05-08T14:38:00.217Z,40.05
2023-05-08T14:40:27.319Z,40.05
2023-05-08T14:42:54.394Z,39.90
2023-05-08T14:45:21.598Z,39.77
2023-05-08T14:47:50.297Z,39.71
2023-05-08T14:50:17.551Z,39.66
2023-05-08T14:52:44.641Z,40.00
2023-05-08T14:55:11.930Z,40.04
2023-05-08T14:57:39.285Z,40.00
2023-05-08T15:00:07.659Z,39.95
2023-05-08T15:02:34.887Z,40.11
2023-05-08T15:05:08.340Z,39.97
2023-05-08T15:07:41.495Z,40.30
2023-05-08T15:10:09.948Z,40.05
2023-05-08T15:12:37.156Z,40.05
2023-05-08T15:15:05.254Z,39.98
2023-05-08T15:17:32.341Z,39.96
2023-05-08T15:19:59.475Z,39.98
2023-05-08T15:22:28.394Z,39.78
2023-05-08T15:24:55.520Z,40.02
2023-05-08T15:27:22.612Z,39.83
2023-05-08T15:29:49.729Z,39.71
2023-05-08T15:32:16.852Z,39.76
2023-05-08T15:34:43.958Z,39.84
2023-05-08T15:37:11.050Z,40.01
2023-05-08T15:39:39.521Z,39.91
2023-05-08T15:42:06.614Z,39.93
2023-05-08T15:44:52.539Z,39.79
2023-05-08T15:47:20.725Z,40.13
2023-05-08T15:49:47.820Z,39.89
2023-05-08T15:52:14.921Z,40.13
2023-05-08T15:54:43.619Z,39.96
2023-05-08T15:57:10.709Z,40.43
2023-05-08T15:59:37.836Z,40.03
2023-05-08T16:02:05.000Z,40.25
2023-05-08T16:04:32.459Z,40.18
2023-05-08T16:06:59.990Z,40.03
2023-05-08T16:09:27.204Z,40.14
2023-05-08T16:11:55.638Z,40.06
2023-05-08T16:14:22.757Z,39.85
2023-05-08T16:16:49.886Z,39.85
2023-05-08T16:19:16.990Z,39.96
2023-05-08T16:21:45.742Z,39.93
2023-05-08T16:24:12.812Z,40.06
2023-05-08T16:26:39.925Z,39.89
2023-05-08T16:29:08.342Z,39.80
2023-05-08T16:31:35.535Z,40.00
2023-05-08T16:34:02.676Z,40.21
2023-05-08T16:36:29.776Z,40.81
2023-05-08T16:38:56.863Z,41.32
2023-05-08T16:41:23.972Z,41.01
2023-05-08T16:43:51.055Z,41.93
2023-05-08T16:46:29.157Z,42.92
2023-05-08T16:48:57.407Z,44.21
2023-05-08T16:51:24.541Z,44.42
2023-05-08T16:53:51.660Z,43.71
2023-05-08T16:56:18.769Z,42.66
2023-05-08T16:58:45.838Z,41.70
2023-05-08T17:01:12.971Z,41.63
2023-05-08T17:03:41.531Z,42.70
2023-05-08T17:06:09.165Z,43.48
2023-05-08T17:08:36.247Z,43.56
2023-05-08T17:11:03.486Z,45.27
2023-05-08T17:13:30.680Z,50.58
2023-05-08T17:15:58.054Z,53.73
2023-05-08T17:18:25.214Z,53.59
2023-05-08T17:20:53.620Z,57.97
2023-05-08T17:23:20.697Z,55.62
2023-05-08T17:25:47.799Z,54.96
2023-05-08T17:28:15.028Z,53.87
2023-05-08T17:30:42.108Z,50.78
2023-05-08T17:33:09.378Z,54.83
2023-05-08T17:35:36.516Z,49.73
2023-05-08T17:38:04.922Z,49.28
2023-05-08T17:40:32.248Z,48.98
2023-05-08T17:42:59.311Z,48.66
2023-05-08T17:45:26.579Z,48.12
2023-05-08T17:47:53.807Z,49.70
2023-05-08T17:50:21.180Z,52.28
2023-05-08T17:52:48.397Z,48.00
2023-05-08T17:55:17.035Z,45.82
2023-05-08T17:57:44.094Z,44.87
2023-05-08T18:00:12.578Z,44.62
2023-05-08T18:02:40.030Z,43.73
2023-05-08T18:05:08.068Z,43.56
2023-05-08T18:07:35.183Z,43.48
2023-05-08T18:10:02.369Z,43.38
2023-05-08T18:12:31.800Z,43.07
2023-05-08T18:14:58.918Z,42.86
2023-05-08T18:17:26.037Z,43.36
2023-05-08T18:19:53.155Z,43.10
2023-05-08T18:22:20.276Z,43.33
2023-05-08T18:24:47.378Z,42.89
2023-05-08T18:27:14.450Z,43.22
2023-05-08T18:29:42.862Z,43.27
2023-05-08T18:32:10.364Z,43.57
2023-05-08T18:34:37.611Z,43.50
2023-05-08T18:37:04.717Z,43.56
2023-05-08T18:39:31.832Z,43.81
2023-05-08T18:41:58.943Z,43.94
2023-05-08T18:44:26.023Z,43.53
2023-05-08T18:46:54.505Z,43.58
2023-05-08T18:49:21.589Z,43.37
2023-05-08T18:51:48.676Z,43.75
2023-05-08T18:54:15.809Z,43.59
2023-05-08T18:56:42.894Z,43.22
2023-05-08T18:59:09.953Z,43.65
2023-05-08T19:01:37.028Z,43.56
2023-05-08T19:04:05.594Z,43.07
2023-05-08T19:06:32.811Z,43.28
2023-05-08T19:08:59.905Z,43.25
2023-05-08T19:11:27.006Z,43.49
2023-05-08T19:13:54.103Z,43.65
2023-05-08T19:16:21.303Z,43.58
2023-05-08T19:18:48.458Z,43.47
2023-05-08T19:21:16.992Z,43.55
2023-05-08T19:23:44.088Z,43.44
2023-05-08T19:26:11.185Z,43.46
2023-05-08T19:28:38.283Z,43.57
2023-05-08T19:31:05.405Z,42.95
2023-05-08T19:33:32.524Z,43.12
2023-05-08T19:35:59.640Z,43.04
2023-05-08T19:38:28.149Z,43.03
2023-05-08T19:40:57.712Z,43.12
2023-05-08T19:43:25.585Z,43.08
2023-05-08T19:45:52.846Z,42.81
2023-05-08T19:48:20.090Z,43.20
2023-05-08T19:50:47.421Z,43.05
2023-05-08T19:53:14.561Z,42.93
2023-05-08T19:55:43.215Z,42.76
2023-05-08T19:58:10.328Z,42.60
2023-05-08T20:00:37.538Z,42.87
2023-05-08T20:03:04.930Z,43.12
2023-05-08T20:05:32.132Z,42.79
2023-05-08T20:07:59.373Z,43.16
2023-05-08T20:10:26.686Z,43.15
2023-05-08T20:12:55.118Z,43.16
2023-05-08T20:15:22.406Z,43.17
2023-05-08T20:17:49.525Z,43.09
2023-05-08T20:20:16.766Z,42.82
2023-05-08T20:22:44.080Z,42.91
2023-05-08T20:25:11.151Z,42.58
2023-05-08T20:27:38.482Z,42.57
2023-05-08T20:30:08.365Z,42.85
2023-05-08T20:32:35.518Z,42.62
2023-05-08T20:35:02.650Z,42.85
2023-05-08T20:37:29.808Z,42.57
2023-05-08T20:39:56.890Z,42.69
2023-05-08T20:42:24.139Z,42.79
2023-05-08T20:44:51.252Z,42.88
2023-05-08T20:47:19.670Z,43.11
2023-05-08T20:49:46.777Z,42.83
2023-05-08T20:52:13.977Z,43.15
2023-05-08T20:54:41.039Z,42.93
2023-05-08T20:57:08.120Z,42.82
2023-05-08T20:59:35.217Z,43.12
2023-05-08T21:02:02.530Z,42.97
2023-05-08T21:04:31.072Z,50.41
2023-05-08T21:06:58.281Z,46.98
2023-05-08T21:09:25.388Z,44.63
2023-05-08T21:11:52.472Z,44.27
2023-05-08T21:14:19.555Z,44.25
2023-05-08T21:16:46.782Z,44.23
2023-05-08T21:19:14.001Z,43.81
2023-05-08T21:21:42.526Z,44.14
2023-05-08T21:24:09.637Z,44.05
2023-05-08T21:26:36.762Z,44.14
2023-05-08T21:29:04.001Z,44.12
2023-05-08T21:31:31.527Z,43.79
2023-05-08T21:33:58.609Z,43.82
2023-05-08T21:36:25.721Z,43.74
2023-05-08T21:38:54.187Z,43.52
2023-05-08T21:41:21.599Z,43.58
2023-05-08T21:43:49.079Z,43.44
2023-05-08T21:46:16.260Z,43.33
2023-05-08T21:48:43.397Z,43.44
2023-05-08T21:51:10.529Z,43.20
2023-05-08T21:53:37.715Z,43.40
2023-05-08T21:56:06.463Z,43.44
2023-05-08T21:58:33.573Z,43.21
2023-05-08T22:01:00.696Z,43.65
2023-05-08T22:03:28.058Z,43.54
2023-05-08T22:05:55.276Z,43.56
2023-05-08T22:08:22.362Z,43.45
2023-05-08T22:10:50.338Z,43.50
2023-05-08T22:13:18.905Z,43.54
2023-05-08T22:15:46.088Z,43.77
2023-05-08T22:18:13.240Z,43.63
2023-05-08T22:20:40.376Z,43.73
2023-05-08T22:23:07.482Z,43.75
2023-05-08T22:25:34.562Z,43.79
2023-05-08T22:28:01.665Z,43.75
2023-05-08T22:30:30.088Z,43.80
2023-05-08T22:32:58.026Z,43.58
2023-05-08T22:35:26.896Z,43.42
2023-05-08T22:37:54.766Z,43.59
2023-05-08T22:40:22.085Z,43.74
2023-05-08T22:42:50.510Z,43.49
2023-05-08T22:45:18.126Z,43.51
2023-05-08T22:47:46.669Z,43.77
2023-05-08T22:50:14.243Z,43.37
2023-05-08T22:52:41.350Z,43.70
2023-05-08T22:55:09.181Z,43.84
2023-05-08T22:57:36.433Z,43.52
2023-05-08T23:00:04.580Z,43.63
2023-05-08T23:02:32.120Z,44.00
2023-05-08T23:05:00.754Z,44.00
2023-05-08T23:07:28.949Z,43.57
2023-05-08T23:09:56.128Z,43.87
2023-05-08T23:12:23.323Z,43.48
2023-05-08T23:14:50.433Z,43.43
2023-05-08T23:17:17.546Z,43.58
2023-05-08T23:19:44.716Z,43.68
2023-05-08T23:22:13.189Z,43.55
2023-05-08T23:24:40.310Z,43.28
2023-05-08T23:27:07.449Z,43.32
2023-05-08T23:29:34.562Z,43.40
2023-05-08T23:32:01.652Z,43.44
2023-05-08T23:34:28.755Z,43.52
2023-05-08T23:36:55.853Z,43.43
2023-05-08T23:39:24.274Z,43.64
2023-05-08T23:41:51.384Z,43.40
2023-05-08T23:44:18.576Z,43.60
2023-05-08T23:46:45.902Z,43.44
2023-05-08T23:49:13.222Z,43.57
2023-05-08T23:51:40.369Z,43.75
2023-05-08T23:54:07.458Z,43.46
2023-05-08T23:56:35.924Z,43.43
2023-05-08T23:59:03.011Z,43.35
